createdAt,value
2019-04-02T00:00:10.587Z,4.92
2019-04-02T00:01:10.548Z,4.92
2019-04-02T00:02:11.756Z,4.85
2019-04-02T00:03:10.607Z,4.89
2019-04-02T00:04:10.532Z,4.9
2019-04-02T00:05:10.512Z,4.9
2019-04-02T00:06:10.592Z,4.95
2019-04-02T00:07:10.546Z,4.88
2019-04-02T00:08:10.535Z,4.92
2019-04-02T00:09:10.553Z,4.9
2019-04-02T00:10:10.510Z,4.91
2019-04-02T00:11:10.544Z,4.98
2019-04-02T00:12:10.519Z,4.91
2019-04-02T00:13:10.549Z,4.94
2019-04-02T00:14:10.541Z,4.89
2019-04-02T00:15:10.510Z,4.91
2019-04-02T00:16:12.793Z,4.86
2019-04-02T00:17:10.881Z,4.87
2019-04-02T00:18:10.560Z,4.89
2019-04-02T00:19:10.528Z,4.9
2019-04-02T00:20:10.521Z,4.88
2019-04-02T00:21:10.518Z,4.88
2019-04-02T00:22:10.523Z,4.86
2019-04-02T00:23:10.611Z,4.89
2019-04-02T00:24:10.577Z,4.88
2019-04-02T00:25:10.544Z,4.85
2019-04-02T00:26:10.560Z,4.86
2019-04-02T00:27:10.540Z,4.87
2019-04-02T00:28:10.520Z,4.85
2019-04-02T00:29:10.830Z,4.9
2019-04-02T00:30:10.575Z,4.86
2019-04-02T00:31:13.930Z,4.89
2019-04-02T00:32:12.056Z,4.88
2019-04-02T00:33:10.622Z,4.85
2019-04-02T00:34:10.746Z,4.87
2019-04-02T00:35:10.599Z,4.81
2019-04-02T00:36:10.515Z,4.87
2019-04-02T00:37:10.495Z,4.87
2019-04-02T00:38:10.500Z,4.84
2019-04-02T00:39:10.520Z,4.87
2019-04-02T00:40:10.521Z,4.84
2019-04-02T00:41:10.476Z,4.81
2019-04-02T00:42:11.539Z,4.79
2019-04-02T00:43:10.516Z,4.84
2019-04-02T00:44:10.523Z,4.82
2019-04-02T00:45:10.483Z,4.83
2019-04-02T00:46:10.460Z,4.79
2019-04-02T00:47:10.469Z,4.8
2019-04-02T00:48:10.482Z,4.76
2019-04-02T00:49:10.504Z,4.79
2019-04-02T00:50:13.124Z,4.79
2019-04-02T00:51:10.502Z,4.76
2019-04-02T00:52:10.459Z,4.78
2019-04-02T00:53:10.552Z,4.78
2019-04-02T00:54:10.482Z,4.77
2019-04-02T00:55:10.520Z,4.75
2019-04-02T00:56:10.566Z,4.79
2019-04-02T00:57:10.446Z,4.73
2019-04-02T00:58:10.450Z,4.74
2019-04-02T00:59:10.483Z,4.74
2019-04-02T01:00:10.508Z,4.73
2019-04-02T01:01:10.488Z,4.78
2019-04-02T01:02:10.446Z,4.7
2019-04-02T01:03:13.000Z,4.74
2019-04-02T01:04:10.899Z,4.72
2019-04-02T01:05:10.482Z,4.73
2019-04-02T01:06:10.532Z,4.74
2019-04-02T01:07:10.501Z,4.75
2019-04-02T01:08:10.436Z,4.78
2019-04-02T01:09:11.556Z,4.77
2019-04-02T01:10:10.478Z,4.74
2019-04-02T01:11:10.494Z,4.74
2019-04-02T01:12:10.540Z,4.77
2019-04-02T01:13:10.470Z,4.74
2019-04-02T01:14:10.505Z,4.76
2019-04-02T01:15:10.457Z,4.71
2019-04-02T01:16:10.739Z,4.7
2019-04-02T01:17:11.976Z,4.7
2019-04-02T01:18:10.882Z,4.73
2019-04-02T01:19:10.512Z,4.71
2019-04-02T01:20:10.571Z,4.71
2019-04-02T01:21:10.451Z,4.69
2019-04-02T01:22:10.478Z,4.69
2019-04-02T01:23:10.448Z,4.71
2019-04-02T01:24:10.422Z,4.7
2019-04-02T01:25:10.416Z,4.7
2019-04-02T01:26:10.426Z,4.7
2019-04-02T01:27:10.461Z,4.67
2019-04-02T01:28:10.463Z,4.71
2019-04-02T01:29:11.898Z,4.68
2019-04-02T01:30:10.504Z,4.66
2019-04-02T01:31:10.403Z,4.67
2019-04-02T01:32:10.460Z,4.63
2019-04-02T01:33:11.775Z,4.64
2019-04-02T01:34:10.562Z,4.68
2019-04-02T01:35:10.450Z,4.67
2019-04-02T01:36:10.439Z,4.65
2019-04-02T01:37:10.482Z,4.62
2019-04-02T01:38:10.580Z,4.64
2019-04-02T01:39:10.397Z,4.64
2019-04-02T01:40:10.418Z,4.64
2019-04-02T01:41:10.467Z,4.64
2019-04-02T01:42:10.380Z,4.67
2019-04-02T01:43:10.534Z,4.6
2019-04-02T01:44:10.424Z,4.63
2019-04-02T01:45:10.429Z,4.61
2019-04-02T01:46:10.460Z,4.59
2019-04-02T01:47:10.388Z,4.63
2019-04-02T01:48:10.391Z,4.58
2019-04-02T01:49:11.549Z,4.62
2019-04-02T01:50:10.389Z,4.6
2019-04-02T01:51:10.507Z,4.6
2019-04-02T01:52:10.452Z,4.55
2019-04-02T01:53:10.400Z,4.56
2019-04-02T01:54:10.475Z,4.61
2019-04-02T01:55:11.738Z,4.49
2019-04-02T01:56:10.403Z,4.52
2019-04-02T01:57:10.382Z,4.57
2019-04-02T01:58:10.426Z,4.53
2019-04-02T01:59:10.482Z,4.53
2019-04-02T02:00:10.486Z,4.55
2019-04-02T02:01:10.420Z,4.52
2019-04-02T02:02:10.420Z,4.57
2019-04-02T02:03:10.450Z,4.54
2019-04-02T02:04:10.430Z,4.54
2019-04-02T02:05:10.392Z,4.57
2019-04-02T02:06:12.553Z,4.59
2019-04-02T02:07:11.105Z,4.57
2019-04-02T02:08:10.392Z,4.55
2019-04-02T02:09:10.397Z,4.56
2019-04-02T02:10:10.405Z,4.56
2019-04-02T02:11:10.380Z,4.54
2019-04-02T02:12:10.464Z,4.55
2019-04-02T02:13:10.358Z,4.56
2019-04-02T02:14:10.363Z,4.55
2019-04-02T02:15:10.383Z,4.51
2019-04-02T02:16:10.398Z,4.52
2019-04-02T02:17:10.406Z,4.5
2019-04-02T02:18:10.389Z,4.55
2019-04-02T02:19:10.341Z,4.51
2019-04-02T02:20:10.427Z,4.5
2019-04-02T02:21:10.526Z,4.44
2019-04-02T02:22:10.651Z,4.49
2019-04-02T02:23:11.931Z,4.49
2019-04-02T02:24:10.388Z,4.47
2019-04-02T02:25:10.380Z,4.5
2019-04-02T02:26:10.395Z,4.47
2019-04-02T02:27:10.377Z,4.47
2019-04-02T02:28:10.407Z,4.46
2019-04-02T02:29:10.403Z,4.45
2019-04-02T02:30:10.394Z,4.49
2019-04-02T02:31:10.489Z,4.48
2019-04-02T02:32:10.405Z,4.54
2019-04-02T02:33:10.522Z,4.51
2019-04-02T02:34:10.465Z,4.55
2019-04-02T02:35:10.518Z,4.54
2019-04-02T02:36:11.009Z,4.49
2019-04-02T02:37:11.573Z,4.51
2019-04-02T02:38:12.042Z,4.53
2019-04-02T02:39:12.342Z,4.47
2019-04-02T02:40:11.644Z,4.47
2019-04-02T02:41:12.456Z,4.54
2019-04-02T02:42:13.513Z,4.5
2019-04-02T02:43:13.537Z,4.49
2019-04-02T02:44:13.837Z,4.46
2019-04-02T02:45:10.319Z,4.5
2019-04-02T02:46:10.325Z,4.47
2019-04-02T02:47:10.381Z,4.49
2019-04-02T02:48:10.366Z,4.5
2019-04-02T02:49:10.378Z,4.48
2019-04-02T02:50:10.383Z,4.44
2019-04-02T02:51:10.354Z,4.47
2019-04-02T02:52:10.651Z,4.43
2019-04-02T02:53:10.390Z,4.47
2019-04-02T02:54:10.343Z,4.46
2019-04-02T02:55:10.353Z,4.41
2019-04-02T02:56:10.431Z,4.41
2019-04-02T02:57:10.528Z,4.42
2019-04-02T02:58:10.355Z,4.43
2019-04-02T02:59:10.305Z,4.41
2019-04-02T03:00:10.693Z,4.46
2019-04-02T03:01:10.390Z,4.44
2019-04-02T03:02:10.430Z,4.44
2019-04-02T03:03:10.453Z,4.39
2019-04-02T03:04:11.644Z,4.42
2019-04-02T03:05:10.784Z,4.45
2019-04-02T03:06:10.347Z,4.44
2019-04-02T03:07:10.356Z,4.42
2019-04-02T03:08:10.303Z,4.45
2019-04-02T03:09:10.331Z,4.44
2019-04-02T03:10:12.777Z,4.44
2019-04-02T03:11:10.284Z,4.4
2019-04-02T03:12:11.333Z,4.43
2019-04-02T03:13:10.380Z,4.4
2019-04-02T03:14:10.488Z,4.41
2019-04-02T03:15:10.523Z,4.4
2019-04-02T03:16:12.232Z,4.37
2019-04-02T03:17:13.138Z,4.33
2019-04-02T03:18:13.609Z,4.3
2019-04-02T03:19:14.823Z,4.32
2019-04-02T03:20:10.424Z,4.33
2019-04-02T03:21:10.348Z,4.34
2019-04-02T03:22:10.474Z,4.29
2019-04-02T03:23:10.334Z,4.34
2019-04-02T03:24:10.320Z,4.38
2019-04-02T03:25:10.356Z,4.34
2019-04-02T03:26:10.287Z,4.29
2019-04-02T03:27:10.824Z,4.33
2019-04-02T03:28:10.315Z,4.28
2019-04-02T03:29:10.358Z,4.31
2019-04-02T03:30:10.365Z,4.31
2019-04-02T03:31:10.292Z,4.29
2019-04-02T03:32:12.073Z,4.25
2019-04-02T03:33:10.397Z,4.29
2019-04-02T03:34:12.414Z,4.33
2019-04-02T03:35:10.403Z,4.3
2019-04-02T03:36:10.281Z,4.27
2019-04-02T03:37:10.285Z,4.29
2019-04-02T03:38:10.285Z,4.35
2019-04-02T03:39:10.283Z,4.29
2019-04-02T03:40:10.375Z,4.29
2019-04-02T03:41:11.131Z,4.35
2019-04-02T03:42:11.662Z,4.33
2019-04-02T03:43:12.655Z,4.26
2019-04-02T03:44:14.095Z,4.32
2019-04-02T03:45:10.240Z,4.34
2019-04-02T03:46:11.787Z,4.31
2019-04-02T03:47:10.318Z,4.35
2019-04-02T03:48:10.387Z,4.36
2019-04-02T03:49:15.558Z,4.32
2019-04-02T03:50:10.337Z,4.27
2019-04-02T03:51:10.335Z,4.33
2019-04-02T03:52:10.356Z,4.26
2019-04-02T03:53:10.290Z,4.26
2019-04-02T03:54:10.336Z,4.32
2019-04-02T03:55:10.352Z,4.26
2019-04-02T03:56:10.359Z,4.26
2019-04-02T03:57:10.335Z,4.24
2019-04-02T03:58:10.273Z,4.26
2019-04-02T03:59:10.268Z,4.24
2019-04-02T04:00:10.386Z,4.26
2019-04-02T04:01:10.223Z,4.26
2019-04-02T04:02:10.217Z,4.22
2019-04-02T04:03:10.364Z,4.28
2019-04-02T04:04:10.273Z,4.26
2019-04-02T04:05:10.429Z,4.22
2019-04-02T04:06:11.202Z,4.24
2019-04-02T04:07:10.257Z,4.26
2019-04-02T04:08:11.318Z,4.2
2019-04-02T04:09:10.845Z,4.18
2019-04-02T04:10:11.446Z,4.18
2019-04-02T04:11:12.604Z,4.19
2019-04-02T04:12:13.164Z,4.27
2019-04-02T04:13:13.788Z,4.26
2019-04-02T04:14:10.250Z,4.23
2019-04-02T04:15:10.324Z,4.19
2019-04-02T04:16:12.180Z,4.23
2019-04-02T04:17:10.257Z,4.19
2019-04-02T04:18:10.281Z,4.2
2019-04-02T04:19:10.403Z,4.14
2019-04-02T04:20:10.214Z,4.23
2019-04-02T04:21:10.297Z,4.2
2019-04-02T04:22:11.116Z,4.15
2019-04-02T04:23:10.315Z,4.18
2019-04-02T04:24:10.280Z,4.17
2019-04-02T04:25:10.247Z,4.14
2019-04-02T04:26:10.247Z,4.17
2019-04-02T04:27:10.355Z,4.18
2019-04-02T04:28:10.618Z,4.17
2019-04-02T04:29:10.539Z,4.15
2019-04-02T04:30:10.251Z,4.14
2019-04-02T04:31:10.206Z,4.16
2019-04-02T04:32:10.631Z,4.11
2019-04-02T04:33:10.370Z,4.1
2019-04-02T04:34:13.219Z,4.1
2019-04-02T04:35:11.117Z,4.12
2019-04-02T04:36:11.973Z,4.13
2019-04-02T04:37:12.005Z,4.13
2019-04-02T04:38:12.719Z,4.15
2019-04-02T04:39:21.241Z,4.13
2019-04-02T04:40:10.399Z,4.17
2019-04-02T04:41:10.176Z,4.15
2019-04-02T04:42:10.177Z,4.06
2019-04-02T04:43:10.371Z,4.09
2019-04-02T04:44:10.250Z,4.1
2019-04-02T04:45:10.231Z,4.08
2019-04-02T04:46:10.238Z,4.06
2019-04-02T04:47:10.218Z,4.1
2019-04-02T04:48:10.188Z,4.11
2019-04-02T04:49:10.297Z,4.15
2019-04-02T04:50:10.316Z,4.12
2019-04-02T04:51:10.210Z,4.04
2019-04-02T04:52:10.186Z,4.05
2019-04-02T04:53:10.216Z,4.1
2019-04-02T04:54:10.647Z,4.05
2019-04-02T04:55:10.697Z,4.05
2019-04-02T04:56:10.188Z,4.08
2019-04-02T04:57:10.268Z,4.04
2019-04-02T04:58:10.459Z,4.07
2019-04-02T04:59:10.213Z,4.06
2019-04-02T05:00:10.192Z,4.01
2019-04-02T05:01:10.179Z,3.98
2019-04-02T05:02:10.339Z,3.98
2019-04-02T05:03:10.183Z,4.02
2019-04-02T05:04:10.203Z,3.98
2019-04-02T05:05:10.181Z,4.03
2019-04-02T05:06:10.243Z,4
2019-04-02T05:07:10.184Z,4.03
2019-04-02T05:08:10.216Z,4.01
2019-04-02T05:09:13.312Z,3.97
2019-04-02T05:10:10.180Z,3.96
2019-04-02T05:11:10.249Z,3.99
2019-04-02T05:12:10.151Z,4.03
2019-04-02T05:13:10.138Z,3.98
2019-04-02T05:14:17.413Z,4.06
2019-04-02T05:15:10.171Z,3.97
2019-04-02T05:16:10.594Z,3.92
2019-04-02T05:17:10.138Z,3.98
2019-04-02T05:18:10.126Z,4
2019-04-02T05:19:10.576Z,3.94
2019-04-02T05:20:10.168Z,3.91
2019-04-02T05:21:10.198Z,3.98
2019-04-02T05:22:10.151Z,3.97
2019-04-02T05:23:12.192Z,3.92
2019-04-02T05:24:13.334Z,3.99
2019-04-02T05:25:12.409Z,3.98
2019-04-02T05:26:11.086Z,4.01
2019-04-02T05:27:11.158Z,4.01
2019-04-02T05:28:10.168Z,4.02
2019-04-02T05:29:10.153Z,3.97
2019-04-02T05:30:10.106Z,4.05
2019-04-02T05:31:10.110Z,3.97
2019-04-02T05:32:10.102Z,4.01
2019-04-02T05:33:10.127Z,4.08
2019-04-02T05:34:10.171Z,4.04
2019-04-02T05:35:10.123Z,4.06
2019-04-02T05:36:10.092Z,4.08
2019-04-02T05:37:10.524Z,3.99
2019-04-02T05:38:10.419Z,3.97
2019-04-02T05:39:10.153Z,3.97
2019-04-02T05:40:10.131Z,3.94
2019-04-02T05:41:10.160Z,3.96
2019-04-02T05:42:12.909Z,4.04
2019-04-02T05:43:10.916Z,3.98
2019-04-02T05:44:10.259Z,3.95
2019-04-02T05:45:10.351Z,3.99
2019-04-02T05:46:10.792Z,3.98
2019-04-02T05:47:10.145Z,4.02
2019-04-02T05:48:10.111Z,3.99
2019-04-02T05:49:10.157Z,4.01
2019-04-02T05:50:10.100Z,4.04
2019-04-02T05:51:10.191Z,4.04
2019-04-02T05:52:10.069Z,4.03
2019-04-02T05:53:10.159Z,4
2019-04-02T05:54:11.254Z,4.03
2019-04-02T05:55:10.128Z,4.04
2019-04-02T05:56:10.109Z,4.01
2019-04-02T05:57:10.329Z,4
2019-04-02T05:58:10.144Z,4.03
2019-04-02T05:59:10.663Z,4.07
2019-04-02T06:00:10.093Z,4.08
2019-04-02T06:01:10.237Z,3.98
2019-04-02T06:02:10.120Z,4.08
2019-04-02T06:03:11.951Z,4.02
2019-04-02T06:04:11.870Z,4.08
2019-04-02T06:05:10.234Z,3.97
2019-04-02T06:06:10.102Z,4.04
2019-04-02T06:07:10.131Z,4.06
2019-04-02T06:08:10.070Z,3.98
2019-04-02T06:09:10.074Z,3.96
2019-04-02T06:10:10.091Z,4.01
2019-04-02T06:11:10.116Z,3.99
2019-04-02T06:12:10.082Z,4
2019-04-02T06:13:10.051Z,4.07
2019-04-02T06:14:10.132Z,4.03
2019-04-02T06:15:10.078Z,4.04
2019-04-02T06:16:10.101Z,4.08
2019-04-02T06:17:10.116Z,4.08
2019-04-02T06:18:10.153Z,4.08
2019-04-02T06:19:10.052Z,4.1
2019-04-02T06:20:10.283Z,4.08
2019-04-02T06:21:11.881Z,4.08
2019-04-02T06:22:10.018Z,4.1
2019-04-02T06:23:15.746Z,4.1
2019-04-02T06:24:10.146Z,4.12
2019-04-02T06:25:10.070Z,4.02
2019-04-02T06:26:10.062Z,4.04
2019-04-02T06:27:10.128Z,4.05
2019-04-02T06:28:10.014Z,4.02
2019-04-02T06:29:10.038Z,4.04
2019-04-02T06:30:10.062Z,4.08
2019-04-02T06:31:10.060Z,4.06
2019-04-02T06:32:10.067Z,4.04
2019-04-02T06:33:10.154Z,4.06
2019-04-02T06:34:10.412Z,4.12
2019-04-02T06:35:10.071Z,4.13
2019-04-02T06:36:10.003Z,4.11
2019-04-02T06:37:10.039Z,4.08
2019-04-02T06:38:10.020Z,4.08
2019-04-02T06:39:10.013Z,4.13
2019-04-02T06:40:10.046Z,4.13
2019-04-02T06:41:10.037Z,4.16
2019-04-02T06:42:13.730Z,4.15
2019-04-02T06:43:10.146Z,4.15
2019-04-02T06:44:10.049Z,4.11
2019-04-02T06:45:10.030Z,4.18
2019-04-02T06:46:10.043Z,4.21
2019-04-02T06:47:10.047Z,4.21
2019-04-02T06:48:10.077Z,4.18
2019-04-02T06:49:10.056Z,4.21
2019-04-02T06:50:10.406Z,4.16
2019-04-02T06:51:10.050Z,4.17
2019-04-02T06:52:10.093Z,4.18
2019-04-02T06:53:10.042Z,4.22
2019-04-02T06:54:10.031Z,4.21
2019-04-02T06:55:10.081Z,4.23
2019-04-02T06:56:10.078Z,4.19
2019-04-02T06:57:10.011Z,4.23
2019-04-02T06:58:10.062Z,4.23
2019-04-02T06:59:10.029Z,4.27
2019-04-02T07:00:13.381Z,4.26
2019-04-02T07:01:33.112Z,4.29
2019-04-02T07:02:10.039Z,4.34
2019-04-02T07:03:10.008Z,4.28
2019-04-02T07:04:10.055Z,4.34
2019-04-02T07:05:09.997Z,4.29
2019-04-02T07:06:09.979Z,4.33
2019-04-02T07:07:12.479Z,4.32
2019-04-02T07:08:15.795Z,4.35
2019-04-02T07:09:10.461Z,4.4
2019-04-02T07:10:10.106Z,4.39
2019-04-02T07:11:09.993Z,4.43
2019-04-02T07:12:10.078Z,4.43
2019-04-02T07:13:10.048Z,4.48
2019-04-02T07:14:09.973Z,4.47
2019-04-02T07:15:10.038Z,4.44
2019-04-02T07:16:10.042Z,4.4
2019-04-02T07:17:09.992Z,4.41
2019-04-02T07:18:09.977Z,4.55
2019-04-02T07:19:09.969Z,4.52
2019-04-02T07:20:10.023Z,4.55
2019-04-02T07:21:09.934Z,4.54
2019-04-02T07:22:09.985Z,4.58
2019-04-02T07:23:09.994Z,4.56
2019-04-02T07:24:09.959Z,4.58
2019-04-02T07:25:09.959Z,4.59
2019-04-02T07:26:10.162Z,4.54
2019-04-02T07:27:12.007Z,4.62
2019-04-02T07:28:13.057Z,4.58
2019-04-02T07:29:10.022Z,4.54
2019-04-02T07:30:09.957Z,4.51
2019-04-02T07:31:10.058Z,4.64
2019-04-02T07:32:09.985Z,4.65
2019-04-02T07:33:09.977Z,4.59
2019-04-02T07:34:10.021Z,4.6
2019-04-02T07:35:10.100Z,4.61
2019-04-02T07:36:10.065Z,4.57
2019-04-02T07:37:09.981Z,4.64
2019-04-02T07:38:10.092Z,4.69
2019-04-02T07:39:09.954Z,4.73
2019-04-02T07:40:10.009Z,4.8
2019-04-02T07:41:12.509Z,4.7
2019-04-02T07:42:09.959Z,4.79
2019-04-02T07:43:09.988Z,4.78
2019-04-02T07:44:10.070Z,4.88
2019-04-02T07:45:11.070Z,4.95
2019-04-02T07:46:10.010Z,4.97
2019-04-02T07:47:10.389Z,4.96
2019-04-02T07:48:10.584Z,5.01
2019-04-02T07:49:09.977Z,4.96
2019-04-02T07:50:09.962Z,4.94
2019-04-02T07:51:10.014Z,5.01
2019-04-02T07:52:09.945Z,5.03
2019-04-02T07:53:09.944Z,5.03
2019-04-02T07:54:09.939Z,5.04
2019-04-02T07:55:09.943Z,5.03
2019-04-02T07:56:09.961Z,5.08
2019-04-02T07:57:09.967Z,5.04
2019-04-02T07:58:09.958Z,5.09
2019-04-02T07:59:11.704Z,5.12
2019-04-02T08:00:10.991Z,5.07
2019-04-02T08:01:09.900Z,5.02
2019-04-02T08:02:09.958Z,5.09
2019-04-02T08:03:09.930Z,5.11
2019-04-02T08:04:10.000Z,5.13
2019-04-02T08:05:09.923Z,5.18
2019-04-02T08:06:09.954Z,5.21
2019-04-02T08:07:09.900Z,5.17
2019-04-02T08:08:09.938Z,5.21
2019-04-02T08:09:10.807Z,5.28
2019-04-02T08:10:10.581Z,5.29
2019-04-02T08:11:10.049Z,5.26
2019-04-02T08:12:09.908Z,5.36
2019-04-02T08:13:09.888Z,5.41
2019-04-02T08:14:10.038Z,5.38
2019-04-02T08:15:09.890Z,5.44
2019-04-02T08:16:09.998Z,5.49
2019-04-02T08:17:09.871Z,5.46
2019-04-02T08:18:09.949Z,5.36
2019-04-02T08:19:09.998Z,5.45
2019-04-02T08:20:10.878Z,5.54
2019-04-02T08:21:09.929Z,5.49
2019-04-02T08:22:09.948Z,5.52
2019-04-02T08:23:09.947Z,5.55
2019-04-02T08:24:09.952Z,5.62
2019-04-02T08:25:09.965Z,5.57
2019-04-02T08:26:09.884Z,5.68
2019-04-02T08:27:09.985Z,5.73
2019-04-02T08:28:13.276Z,5.78
2019-04-02T08:29:09.889Z,5.78
2019-04-02T08:30:09.894Z,5.72
2019-04-02T08:31:10.662Z,5.79
2019-04-02T08:32:09.873Z,5.76
2019-04-02T08:33:09.907Z,5.84
2019-04-02T08:34:12.385Z,5.79
2019-04-02T08:35:09.929Z,5.81
2019-04-02T08:36:09.932Z,5.74
2019-04-02T08:37:09.888Z,5.89
2019-04-02T08:38:09.983Z,5.8
2019-04-02T08:39:09.934Z,5.92
2019-04-02T08:40:09.918Z,5.93
2019-04-02T08:41:09.917Z,6.05
2019-04-02T08:42:09.875Z,5.92
2019-04-02T08:43:09.875Z,6.01
2019-04-02T08:44:09.935Z,6.13
2019-04-02T08:45:09.895Z,6.05
2019-04-02T08:46:09.914Z,6.24
2019-04-02T08:47:09.811Z,6.07
2019-04-02T08:48:09.923Z,6.11
2019-04-02T08:49:09.900Z,6.22
2019-04-02T08:50:09.853Z,6.13
2019-04-02T08:51:09.949Z,6.12
2019-04-02T08:52:10.179Z,6.32
2019-04-02T08:53:10.837Z,6.25
2019-04-02T08:54:09.849Z,6.46
2019-04-02T08:55:09.867Z,6.38
2019-04-02T08:56:09.871Z,6.38
2019-04-02T08:57:09.822Z,6.37
2019-04-02T08:58:09.873Z,6.24
2019-04-02T08:59:09.840Z,6.43
2019-04-02T09:00:09.836Z,6.43
2019-04-02T09:01:09.842Z,6.37
2019-04-02T09:02:12.154Z,6.37
2019-04-02T09:03:09.897Z,6.48
2019-04-02T09:04:09.960Z,6.41
2019-04-02T09:05:09.831Z,6.38
2019-04-02T09:06:12.360Z,6.47
2019-04-02T09:07:09.867Z,6.47
2019-04-02T09:08:09.843Z,6.31
2019-04-02T09:09:09.899Z,6.45
2019-04-02T09:10:09.829Z,6.43
2019-04-02T09:11:09.842Z,6.4
2019-04-02T09:12:09.871Z,6.51
2019-04-02T09:13:12.313Z,6.55
2019-04-02T09:14:10.268Z,6.51
2019-04-02T09:15:09.826Z,6.48
2019-04-02T09:16:09.801Z,6.56
2019-04-02T09:17:09.808Z,6.7
2019-04-02T09:18:09.900Z,6.84
2019-04-02T09:19:09.887Z,6.62
2019-04-02T09:20:09.828Z,6.63
2019-04-02T09:21:09.811Z,6.66
2019-04-02T09:22:09.832Z,6.63
2019-04-02T09:23:09.846Z,6.79
2019-04-02T09:24:09.834Z,6.83
2019-04-02T09:25:09.879Z,6.82
2019-04-02T09:26:19.060Z,6.77
2019-04-02T09:27:09.802Z,6.92
2019-04-02T09:28:09.878Z,6.83
2019-04-02T09:29:12.829Z,6.91
2019-04-02T09:30:09.855Z,6.85
2019-04-02T09:31:12.113Z,6.98
2019-04-02T09:32:09.786Z,6.96
2019-04-02T09:33:09.853Z,6.86
2019-04-02T09:34:12.515Z,6.73
2019-04-02T09:35:10.193Z,6.92
2019-04-02T09:36:09.913Z,6.97
2019-04-02T09:37:09.785Z,6.97
2019-04-02T09:38:09.862Z,7.04
2019-04-02T09:39:09.811Z,6.96
2019-04-02T09:40:09.951Z,6.98
2019-04-02T09:41:09.838Z,7.1
2019-04-02T09:42:09.791Z,7.03
2019-04-02T09:43:09.831Z,7.04
2019-04-02T09:44:12.057Z,7.18
2019-04-02T09:45:10.392Z,7.14
2019-04-02T09:46:09.808Z,7.16
2019-04-02T09:47:09.779Z,7.24
2019-04-02T09:48:09.770Z,7.33
2019-04-02T09:49:12.735Z,7.3
2019-04-02T09:50:09.756Z,7.38
2019-04-02T09:51:09.806Z,7.28
2019-04-02T09:52:09.755Z,7.24
2019-04-02T09:53:09.758Z,7.17
2019-04-02T09:54:09.776Z,7.28
2019-04-02T09:55:09.759Z,7.37
2019-04-02T09:56:09.802Z,7.45
2019-04-02T09:57:09.764Z,7.39
2019-04-02T09:58:09.785Z,7.31
2019-04-02T09:59:11.131Z,7.34
2019-04-02T10:00:09.851Z,7.48
2019-04-02T10:01:09.756Z,7.46
2019-04-02T10:02:09.740Z,7.48
2019-04-02T10:03:09.849Z,7.46
2019-04-02T10:04:09.763Z,7.46
2019-04-02T10:05:09.787Z,7.37
2019-04-02T10:06:09.811Z,7.36
2019-04-02T10:07:09.756Z,7.56
2019-04-02T10:08:09.748Z,7.58
2019-04-02T10:09:09.816Z,7.63
2019-04-02T10:10:09.851Z,7.8
2019-04-02T10:11:09.741Z,7.78
2019-04-02T10:12:09.735Z,7.75
2019-04-02T10:13:09.772Z,7.64
2019-04-02T10:14:09.708Z,7.69
2019-04-02T10:15:09.733Z,7.75
2019-04-02T10:16:11.889Z,7.76
2019-04-02T10:17:09.757Z,7.67
2019-04-02T10:18:10.338Z,7.76
2019-04-02T10:19:09.748Z,7.81
2019-04-02T10:20:09.769Z,7.68
2019-04-02T10:21:09.753Z,7.68
2019-04-02T10:22:09.777Z,7.74
2019-04-02T10:23:09.753Z,7.68
2019-04-02T10:24:09.818Z,7.56
2019-04-02T10:25:09.778Z,7.89
2019-04-02T10:26:09.732Z,7.8
2019-04-02T10:27:09.733Z,7.85
2019-04-02T10:28:09.729Z,7.82
2019-04-02T10:29:09.724Z,7.74
2019-04-02T10:30:09.704Z,8.02
2019-04-02T10:31:09.738Z,7.91
2019-04-02T10:32:09.851Z,8.16
2019-04-02T10:33:09.727Z,7.91
2019-04-02T10:34:09.764Z,7.96
2019-04-02T10:35:09.762Z,7.9
2019-04-02T10:36:09.695Z,8
2019-04-02T10:37:09.742Z,8.04
2019-04-02T10:38:09.708Z,8
2019-04-02T10:39:09.704Z,7.73
2019-04-02T10:40:09.984Z,8.19
2019-04-02T10:41:09.723Z,8
2019-04-02T10:42:09.758Z,7.99
2019-04-02T10:43:09.740Z,7.94
2019-04-02T10:44:09.703Z,7.98
2019-04-02T10:45:09.716Z,8.08
2019-04-02T10:46:09.687Z,8.06
2019-04-02T10:47:09.671Z,7.92
2019-04-02T10:48:09.931Z,7.94
2019-04-02T10:49:12.241Z,7.77
2019-04-02T10:50:09.746Z,7.79
2019-04-02T10:51:09.714Z,7.9
2019-04-02T10:52:09.720Z,8.11
2019-04-02T10:53:09.688Z,8.3
2019-04-02T10:54:09.786Z,8.26
2019-04-02T10:55:09.734Z,8.27
2019-04-02T10:56:09.708Z,8.16
2019-04-02T10:57:09.714Z,7.82
2019-04-02T10:58:12.389Z,7.92
2019-04-02T10:59:13.120Z,7.89
2019-04-02T11:00:09.748Z,7.66
2019-04-02T11:01:11.769Z,7.91
2019-04-02T11:02:09.690Z,7.79
2019-04-02T11:03:09.770Z,7.78
2019-04-02T11:04:09.677Z,7.65
2019-04-02T11:05:09.726Z,7.42
2019-04-02T11:06:09.693Z,7.21
2019-04-02T11:07:14.395Z,7.51
2019-04-02T11:08:09.768Z,7.66
2019-04-02T11:09:09.805Z,7.75
2019-04-02T11:10:09.798Z,7.7
2019-04-02T11:11:09.710Z,7.45
2019-04-02T11:12:09.753Z,7.58
2019-04-02T11:13:12.385Z,7.73
2019-04-02T11:14:13.438Z,7.87
2019-04-02T11:15:09.678Z,7.9
2019-04-02T11:16:09.911Z,8.02
2019-04-02T11:17:09.695Z,7.79
2019-04-02T11:18:09.648Z,7.56
2019-04-02T11:19:09.774Z,7.53
2019-04-02T11:20:09.657Z,7.61
2019-04-02T11:21:09.779Z,7.69
2019-04-02T11:22:09.909Z,7.54
2019-04-02T11:23:09.953Z,7.8
2019-04-02T11:24:09.730Z,7.84
2019-04-02T11:25:09.740Z,8.03
2019-04-02T11:26:09.743Z,7.88
2019-04-02T11:27:09.650Z,7.86
2019-04-02T11:28:09.609Z,7.46
2019-04-02T11:29:09.642Z,7.79
2019-04-02T11:30:09.685Z,7.84
2019-04-02T11:31:09.655Z,7.86
2019-04-02T11:32:09.742Z,7.97
2019-04-02T11:33:09.722Z,8.04
2019-04-02T11:34:09.877Z,8.34
2019-04-02T11:35:09.650Z,8.17
2019-04-02T11:36:09.843Z,8.18
2019-04-02T11:37:15.491Z,8.03
2019-04-02T11:38:09.671Z,8.3
2019-04-02T11:39:09.706Z,8.4
2019-04-02T11:40:09.713Z,8.25
2019-04-02T11:41:09.654Z,8.33
2019-04-02T11:42:09.674Z,8.05
2019-04-02T11:43:09.719Z,7.93
2019-04-02T11:44:10.266Z,7.64
2019-04-02T11:45:09.871Z,7.49
2019-04-02T11:46:09.651Z,7.65
2019-04-02T11:47:09.662Z,7.7
2019-04-02T11:48:09.651Z,7.54
2019-04-02T11:49:09.614Z,7.79
2019-04-02T11:50:09.660Z,7.82
2019-04-02T11:51:10.256Z,7.87
2019-04-02T11:52:10.034Z,7.5
2019-04-02T11:53:09.983Z,7.58
2019-04-02T11:54:24.131Z,7.87
2019-04-02T11:55:09.624Z,7.58
2019-04-02T11:56:09.637Z,7.68
2019-04-02T11:57:10.186Z,7.89
2019-04-02T11:58:17.641Z,7.46
2019-04-02T11:59:09.669Z,7.51
2019-04-02T12:00:09.642Z,7.82
2019-04-02T12:01:09.625Z,7.52
2019-04-02T12:02:09.740Z,7.59
2019-04-02T12:03:09.605Z,7.42
2019-04-02T12:04:11.732Z,7.43
2019-04-02T12:05:21.707Z,8.15
2019-04-02T12:06:09.989Z,7.72
2019-04-02T12:07:11.282Z,7.53
2019-04-02T12:08:19.403Z,7.21
2019-04-02T12:10:09.586Z,6.12
2019-04-02T12:11:09.587Z,6.56
2019-04-02T12:12:09.636Z,6.65
2019-04-02T12:13:09.680Z,5.74
2019-04-02T12:14:09.607Z,6.03
2019-04-02T12:15:09.633Z,6.78
2019-04-02T12:16:09.587Z,6.86
2019-04-02T12:17:09.654Z,6.99
2019-04-02T12:18:09.721Z,7.25
2019-04-02T12:19:14.053Z,6.92
2019-04-02T12:20:09.603Z,6.76
2019-04-02T12:21:12.352Z,5.88
2019-04-02T12:22:12.353Z,6.01
2019-04-02T12:23:09.578Z,5.8
2019-04-02T12:24:12.574Z,5.46
2019-04-02T12:25:11.579Z,6.08
2019-04-02T12:26:09.730Z,5.47
2019-04-02T12:27:09.599Z,5.87
2019-04-02T12:28:10.737Z,6.23
2019-04-02T12:29:09.587Z,6.19
2019-04-02T12:30:09.588Z,6.17
2019-04-02T12:31:09.576Z,5.89
2019-04-02T12:32:09.563Z,5.78
2019-04-02T12:33:09.595Z,5.33
2019-04-02T12:34:11.384Z,5.64
2019-04-02T12:35:09.585Z,5.27
2019-04-02T12:36:12.399Z,5.97
2019-04-02T12:37:12.331Z,5.97
2019-04-02T12:38:12.561Z,5.21
2019-04-02T12:39:12.799Z,5.77
2019-04-02T12:40:12.005Z,5.54
2019-04-02T12:41:10.330Z,5.98
2019-04-02T12:42:11.308Z,5.77
2019-04-02T12:43:09.580Z,6.24
2019-04-02T12:44:09.562Z,5.58
2019-04-02T12:45:09.581Z,5.98
2019-04-02T12:46:09.579Z,5.76
2019-04-02T12:47:09.544Z,4.95
2019-04-02T12:48:09.551Z,4.79
2019-04-02T12:49:09.665Z,3.98
2019-04-02T12:50:09.631Z,4.24
2019-04-02T12:51:10.763Z,4.1
2019-04-02T12:52:11.558Z,3.46
2019-04-02T12:53:09.569Z,3.1
2019-04-02T12:54:09.554Z,3.82
2019-04-02T12:55:09.580Z,3.11
2019-04-02T12:56:09.545Z,3.41
2019-04-02T12:57:09.575Z,3.07
2019-04-02T12:58:09.567Z,3.28
2019-04-02T12:59:10.191Z,4
2019-04-02T13:00:09.857Z,3.71
2019-04-02T13:01:09.597Z,3.76
2019-04-02T13:02:11.780Z,3.53
2019-04-02T13:03:09.546Z,2.74
2019-04-02T13:04:09.533Z,3.31
2019-04-02T13:05:09.522Z,3.78
2019-04-02T13:06:09.508Z,3.56
2019-04-02T13:07:09.519Z,3.09
2019-04-02T13:08:09.542Z,2.96
2019-04-02T13:09:09.547Z,3.63
2019-04-02T13:10:10.628Z,3.59
2019-04-02T13:11:09.579Z,4.1
2019-04-02T13:12:09.559Z,3.09
2019-04-02T13:13:09.573Z,3.47
2019-04-02T13:14:09.557Z,3.85
2019-04-02T13:15:09.530Z,3.64
2019-04-02T13:16:09.566Z,3.25
2019-04-02T13:17:13.350Z,3.21
2019-04-02T13:18:09.534Z,4.07
2019-04-02T13:19:09.528Z,3.78
2019-04-02T13:20:09.556Z,3.55
2019-04-02T13:21:09.549Z,3.97
2019-04-02T13:22:12.947Z,3.35